Airport Name : Fujairah Intl

Other Name : Fujairah Intl

ICAO : OMFJ

IATA : FJR

FAA :

Latitude : 25.112225

Longitude : 56.323964

Country : United Arab Emirates

Local Date and Time : 31 Jan 2023 01:26

 

TAF (Terminal Aerodrome Forecast)

TAF OMFJ 301700Z 3018/0100 29006KT 8000 NSC BECMG 3106/3108 10009KT FEW025 BECMG 3120/3122 29006KT

 

METAR (METeorological Aerodrome Report)

OMFJ 302100Z 29005KT 7000 NSC 17/14 Q1019 A3009

OMFJ 302050Z 29005KT 7000 NSC 17/14 Q1019 RMK A3009

OMFJ 302000Z 30006KT 6000 NSC 17/15 Q1019 A3009

OMFJ 301950Z 30006KT 6000 NSC 17/15 Q1019 RMK A3009

OMFJ 301900Z 30005KT 6000 NSC 18/15 Q1019 A3010

OMFJ 301850Z 30005KT 6000 NSC 18/15 Q1019 RMK A3010

OMFJ 301800Z 28004KT 7000 NSC 19/15 Q1019 A3010

OMFJ 301750Z 28004KT 7000 NSC 19/15 Q1019 RMK A3010

To Charter a Jet Click here.